Time;durP1;ratioP1;P1;durP2;ratioP2;P2;SDS_P1;SDS_P2;PMS_P1;PMS_P2;Temp;Humidity;BMP_temperature;BMP_pressure;BME280_temperature;BME280_humidity;BME280_pressure;Samples;Min_cycle;Max_cycle;Signal;HPM_P1;HPM_P2
2022/12/18 00:01:31;;;;;;;;;;;-3.00;99.90;;;;;;5052216;28;19962;-85
2022/12/18 00:03:57;;;;;;;;;;;-3.00;99.90;;;;;;5052544;28;19915;-84
2022/12/18 00:06:23;;;;;;;;;;;-2.90;99.90;;;;;;5052380;28;19951;-84
2022/12/18 00:08:48;;;;;;;;;;;-3.00;99.90;;;;;;5052680;28;19995;-84
2022/12/18 00:11:15;;;;;;;;;;;-3.00;99.90;;;;;;5051746;28;19917;-84
2022/12/18 00:13:41;;;;;;;;;;;-3.00;99.90;;;;;;5052160;28;19908;-85
2022/12/18 00:16:09;;;;;;;;;;;-3.00;99.90;;;;;;5052364;28;19963;-84
2022/12/18 00:18:34;;;;;;;;;;;-3.10;99.90;;;;;;5052239;28;19909;-84
2022/12/18 00:21:01;;;;;;;;;;;-3.10;99.90;;;;;;5051914;28;19909;-84
2022/12/18 00:23:26;;;;;;;;;;;-3.10;99.90;;;;;;5068044;22;20309;-83
2022/12/18 00:25:52;;;;;;;;;;;-3.10;99.90;;;;;;5053774;28;19916;-83
2022/12/18 00:28:17;;;;;;;;;;;-3.20;99.90;;;;;;5052362;28;19916;-82
2022/12/18 00:30:43;;;;;;;;;;;-3.20;99.90;;;;;;5052462;28;20031;-83
2022/12/18 00:33:08;;;;;;;;;;;-3.20;99.90;;;;;;5052099;28;20354;-83
2022/12/18 00:35:34;;;;;;;;;;;-3.20;99.90;;;;;;5052409;28;19912;-82
2022/12/18 00:37:59;;;;;;;;;;;-3.20;99.90;;;;;;5052009;28;19909;-84
2022/12/18 00:40:25;;;;;;;;;;;-3.20;99.90;;;;;;5051859;28;19948;-82
2022/12/18 00:42:56;;;;;;;;;;;-3.20;99.90;;;;;;5051645;28;20527;-82
2022/12/18 00:45:28;;;;;;;;;;;-3.20;99.90;;;;;;5051953;28;19945;-82
2022/12/18 00:47:54;;;;;;;;;;;-3.10;99.90;;;;;;5053199;28;20293;-82
2022/12/18 00:50:20;;;;;;;;;;;-3.10;99.90;;;;;;5051990;28;19908;-82
2022/12/18 00:52:46;;;;;;;;;;;-3.20;99.90;;;;;;5051482;28;19913;-83
2022/12/18 00:55:11;;;;;;;;;;;-3.20;99.90;;;;;;5052937;28;19915;-82
2022/12/18 00:57:37;;;;;;;;;;;-3.20;99.90;;;;;;5051908;28;19909;-83
2022/12/18 01:00:03;;;;;;;;;;;-3.20;99.90;;;;;;5051840;28;19909;-83
2022/12/18 01:02:29;;;;;;;;;;;-3.20;99.90;;;;;;5051437;28;20340;-83
2022/12/18 01:04:54;;;;;;;;;;;-3.20;99.90;;;;;;5051576;28;19909;-83
2022/12/18 01:07:19;;;;;;;;;;;-3.20;99.90;;;;;;5051549;28;20370;-83
2022/12/18 01:09:45;;;;;;;;;;;-3.20;99.90;;;;;;5052835;28;19909;-83
2022/12/18 01:12:10;;;;;;;;;;;-3.30;99.90;;;;;;5051175;28;19967;-82
2022/12/18 01:14:37;;;;;;;;;;;-3.30;99.90;;;;;;5051423;28;20378;-82
2022/12/18 01:17:03;;;;;;;;;;;-3.30;99.90;;;;;;5051536;28;19916;-83
2022/12/18 01:19:29;;;;;;;;;;;-3.30;99.90;;;;;;5052760;28;20298;-83
2022/12/18 01:21:54;;;;;;;;;;;-3.40;99.90;;;;;;5051166;28;19916;-82
2022/12/18 01:24:20;;;;;;;;;;;-3.30;99.90;;;;;;5052776;28;20439;-83
2022/12/18 01:26:45;;;;;;;;;;;-3.40;99.90;;;;;;5053167;28;20370;-84
2022/12/18 01:29:11;;;;;;;;;;;-3.40;99.90;;;;;;5053644;28;19919;-84
2022/12/18 01:31:36;;;;;;;;;;;-3.40;99.90;;;;;;5053286;28;19913;-84
2022/12/18 01:34:02;;;;;;;;;;;-3.40;99.90;;;;;;5053461;28;20376;-83
2022/12/18 01:36:28;;;;;;;;;;;-3.40;99.90;;;;;;5055471;28;19966;-84
2022/12/18 01:38:54;;;;;;;;;;;-3.40;99.90;;;;;;5053581;28;19909;-84
2022/12/18 01:41:21;;;;;;;;;;;-3.40;99.90;;;;;;5053581;28;19932;-84
2022/12/18 01:43:47;;;;;;;;;;;-3.40;99.90;;;;;;5055144;28;19916;-82
2022/12/18 01:46:12;;;;;;;;;;;-3.40;99.90;;;;;;5053797;28;19909;-84
2022/12/18 01:48:38;;;;;;;;;;;-3.50;99.90;;;;;;5060049;28;19909;-83
2022/12/18 01:51:04;;;;;;;;;;;-3.50;99.90;;;;;;5059886;28;19966;-83
2022/12/18 01:53:30;;;;;;;;;;;-3.50;99.90;;;;;;5060476;28;19909;-82
2022/12/18 01:55:56;;;;;;;;;;;-3.50;99.90;;;;;;5060256;28;19909;-84
2022/12/18 01:58:30;;;;;;;;;;;-3.40;99.90;;;;;;5062245;28;19912;-82
2022/12/18 02:00:55;;;;;;;;;;;-3.40;99.90;;;;;;5060403;28;19908;-84
2022/12/18 02:03:21;;;;;;;;;;;-3.40;99.90;;;;;;5060040;28;20366;-82
2022/12/18 02:05:52;;;;;;;;;;;-3.40;99.90;;;;;;5060115;28;19909;-83
2022/12/18 02:08:20;;;;;;;;;;;-3.40;99.90;;;;;;5060128;28;20355;-84
2022/12/18 02:10:46;;;;;;;;;;;-3.40;99.90;;;;;;5062123;28;19916;-84
2022/12/18 02:13:30;;;;;;;;;;;-3.50;99.90;;;;;;5058499;28;19959;-83
2022/12/18 02:16:05;;;;;;;;;;;-3.40;99.90;;;;;;5060425;28;19913;-84
2022/12/18 02:18:33;;;;;;;;;;;-3.40;99.90;;;;;;5059770;28;19952;-84
2022/12/18 02:21:12;;;;;;;;;;;-3.40;99.90;;;;;;5059115;28;19909;-84
2022/12/18 02:23:47;;;;;;;;;;;-3.40;99.90;;;;;;5059436;28;20500;-82
2022/12/18 02:26:18;;;;;;;;;;;-3.40;99.90;;;;;;5058722;28;20012;-82
2022/12/18 02:28:47;;;;;;;;;;;-3.40;99.90;;;;;;5059022;28;20388;-82
2022/12/18 02:31:16;;;;;;;;;;;-3.40;99.90;;;;;;5058965;28;19939;-83
2022/12/18 02:33:43;;;;;;;;;;;-3.40;99.90;;;;;;5061683;28;20016;-82
2022/12/18 02:36:09;;;;;;;;;;;-3.40;99.90;;;;;;5059074;28;19964;-83
2022/12/18 02:38:34;;;;;;;;;;;-3.50;99.90;;;;;;5059080;28;19962;-82
2022/12/18 02:41:00;;;;;;;;;;;-3.50;99.90;;;;;;5058100;28;19983;-86
2022/12/18 02:43:26;;;;;;;;;;;-3.40;99.90;;;;;;5058322;28;19908;-82
2022/12/18 02:45:56;;;;;;;;;;;-3.40;99.90;;;;;;5057888;28;19913;-82
2022/12/18 02:48:30;;;;;;;;;;;-3.40;99.90;;;;;;5058270;28;20337;-83
2022/12/18 02:51:03;;;;;;;;;;;-3.40;99.90;;;;;;5058604;28;20386;-83
2022/12/18 02:53:28;;;;;;;;;;;-3.50;99.90;;;;;;5058149;28;19909;-84
2022/12/18 02:56:08;;;;;;;;;;;-3.50;99.90;;;;;;5057982;28;19916;-82
2022/12/18 02:58:42;;;;;;;;;;;-3.50;99.90;;;;;;5056997;28;19959;-83
2022/12/18 03:01:14;;;;;;;;;;;-3.50;99.90;;;;;;5057507;28;20332;-83
2022/12/18 03:03:42;;;;;;;;;;;-3.50;99.90;;;;;;5057263;28;19958;-83
2022/12/18 03:06:10;;;;;;;;;;;-3.50;99.90;;;;;;5058464;28;19931;-83
2022/12/18 03:08:38;;;;;;;;;;;-3.50;99.90;;;;;;5057538;28;20282;-82
2022/12/18 03:11:11;;;;;;;;;;;-3.50;99.90;;;;;;5059442;28;19913;-82
2022/12/18 03:13:40;;;;;;;;;;;-3.40;99.90;;;;;;5058549;28;19916;-82
2022/12/18 03:16:06;;;;;;;;;;;-3.40;99.90;;;;;;5057640;28;19916;-83
2022/12/18 03:18:37;;;;;;;;;;;-3.40;99.90;;;;;;5056430;28;19912;-84
2022/12/18 03:21:05;;;;;;;;;;;-3.40;99.90;;;;;;5056808;28;19909;-82
2022/12/18 03:23:33;;;;;;;;;;;-3.40;99.90;;;;;;5056536;28;19968;-83
2022/12/18 03:26:00;;;;;;;;;;;-3.40;99.90;;;;;;5057030;28;19909;-83
2022/12/18 03:28:30;;;;;;;;;;;-3.40;99.90;;;;;;5056573;28;20297;-82
2022/12/18 03:30:57;;;;;;;;;;;-3.40;99.90;;;;;;5056782;28;19912;-82
2022/12/18 03:33:28;;;;;;;;;;;-3.40;99.90;;;;;;5056829;28;19931;-83
2022/12/18 03:35:54;;;;;;;;;;;-3.40;99.90;;;;;;5058861;28;19999;-82
2022/12/18 03:38:20;;;;;;;;;;;-3.40;99.90;;;;;;5057499;28;19948;-82
2022/12/18 03:41:04;;;;;;;;;;;-3.50;99.90;;;;;;5058341;28;19948;-82
2022/12/18 03:43:46;;;;;;;;;;;-3.50;99.90;;;;;;5057806;28;19909;-82
2022/12/18 03:46:29;;;;;;;;;;;-3.40;99.90;;;;;;5056484;28;19996;-82
2022/12/18 03:49:05;;;;;;;;;;;-3.50;99.90;;;;;;5056056;28;19931;-82
2022/12/18 03:51:39;;;;;;;;;;;-3.50;99.90;;;;;;5056883;28;19916;-83
2022/12/18 03:54:06;;;;;;;;;;;-3.50;99.90;;;;;;5056119;28;20011;-82
2022/12/18 03:56:35;;;;;;;;;;;-3.50;99.90;;;;;;5058154;28;19909;-82
2022/12/18 03:59:01;;;;;;;;;;;-3.50;99.90;;;;;;5055822;28;19920;-82
2022/12/18 04:01:38;;;;;;;;;;;-3.60;99.90;;;;;;5056861;28;20305;-83
2022/12/18 04:04:05;;;;;;;;;;;-3.60;99.90;;;;;;5055248;28;19916;-83
2022/12/18 04:06:34;;;;;;;;;;;-3.60;99.90;;;;;;5055439;28;20584;-83
2022/12/18 04:09:00;;;;;;;;;;;-3.50;99.90;;;;;;5055698;28;19909;-83
2022/12/18 04:11:26;;;;;;;;;;;-3.50;99.90;;;;;;5053245;28;19943;-83
2022/12/18 04:13:54;;;;;;;;;;;-3.60;99.90;;;;;;5055228;28;19992;-83
2022/12/18 04:16:20;;;;;;;;;;;-3.60;99.90;;;;;;5055439;28;19909;-82
2022/12/18 04:18:45;;;;;;;;;;;-3.60;99.90;;;;;;5057227;28;19916;-82
2022/12/18 04:21:11;;;;;;;;;;;-3.60;99.90;;;;;;5056627;28;19916;-82
2022/12/18 04:23:36;;;;;;;;;;;-3.60;99.90;;;;;;5057253;28;20218;-82
2022/12/18 04:26:02;;;;;;;;;;;-3.60;99.90;;;;;;5055418;28;19916;-83
2022/12/18 04:28:27;;;;;;;;;;;-3.60;99.90;;;;;;5055426;28;19916;-84
2022/12/18 04:30:53;;;;;;;;;;;-3.60;99.90;;;;;;5053815;28;20016;-85
2022/12/18 04:33:18;;;;;;;;;;;-3.60;99.90;;;;;;5054788;28;19916;-83
2022/12/18 04:35:44;;;;;;;;;;;-3.60;99.90;;;;;;5054568;28;20008;-82
2022/12/18 04:38:09;;;;;;;;;;;-3.60;99.90;;;;;;5054943;28;19948;-84
2022/12/18 04:40:35;;;;;;;;;;;-3.60;99.90;;;;;;5054674;28;20285;-82
2022/12/18 04:43:01;;;;;;;;;;;-3.60;99.90;;;;;;5054384;28;19959;-82
2022/12/18 04:45:27;;;;;;;;;;;-3.60;99.90;;;;;;5055860;28;20313;-83
2022/12/18 04:47:52;;;;;;;;;;;-3.60;99.90;;;;;;5055769;28;19960;-83
2022/12/18 04:50:18;;;;;;;;;;;-3.60;99.90;;;;;;5054349;28;19909;-82
2022/12/18 04:52:43;;;;;;;;;;;-3.60;99.90;;;;;;5053801;28;19913;-82
2022/12/18 04:55:08;;;;;;;;;;;-3.70;99.90;;;;;;5054389;28;19909;-83
2022/12/18 04:57:34;;;;;;;;;;;-3.60;99.90;;;;;;5053994;28;19976;-83
2022/12/18 04:59:59;;;;;;;;;;;-3.60;99.90;;;;;;5053965;28;19909;-83
2022/12/18 05:02:25;;;;;;;;;;;-3.70;99.90;;;;;;5054506;28;19919;-83
2022/12/18 05:04:50;;;;;;;;;;;-3.60;99.90;;;;;;5054159;28;19913;-83
2022/12/18 05:07:16;;;;;;;;;;;-3.70;99.90;;;;;;5055628;28;20000;-82
2022/12/18 05:09:41;;;;;;;;;;;-3.70;99.90;;;;;;5054089;28;19908;-82
2022/12/18 05:12:07;;;;;;;;;;;-3.70;99.90;;;;;;5053373;28;19917;-82
2022/12/18 05:14:32;;;;;;;;;;;-3.70;99.90;;;;;;5055936;28;19908;-82
2022/12/18 05:16:58;;;;;;;;;;;-3.70;99.90;;;;;;5055141;28;19908;-83
2022/12/18 05:19:23;;;;;;;;;;;-3.70;99.90;;;;;;5053437;28;19915;-85
2022/12/18 05:21:49;;;;;;;;;;;-3.60;99.90;;;;;;5052956;28;19908;-84
2022/12/18 05:24:14;;;;;;;;;;;-3.70;99.90;;;;;;5052075;28;20002;-87
2022/12/18 05:26:40;;;;;;;;;;;-3.70;99.90;;;;;;5052042;28;19912;-84
2022/12/18 05:29:05;;;;;;;;;;;-3.60;99.90;;;;;;5054567;28;19909;-84
2022/12/18 05:31:30;;;;;;;;;;;-3.60;99.90;;;;;;5056326;28;19919;-84
2022/12/18 05:33:56;;;;;;;;;;;-3.60;99.90;;;;;;5057872;28;19908;-84
2022/12/18 05:36:21;;;;;;;;;;;-3.60;99.90;;;;;;5056231;28;19908;-83
2022/12/18 05:38:47;;;;;;;;;;;-3.60;99.90;;;;;;5056975;28;19944;-83
2022/12/18 05:41:12;;;;;;;;;;;-3.60;99.90;;;;;;5055071;28;19917;-86
2022/12/18 05:43:39;;;;;;;;;;;-3.60;99.90;;;;;;5051640;28;19915;-85
2022/12/18 05:46:08;;;;;;;;;;;-3.60;99.90;;;;;;5051770;28;19954;-83
2022/12/18 05:48:34;;;;;;;;;;;-3.60;99.90;;;;;;5051118;28;19913;-86
2022/12/18 05:51:04;;;;;;;;;;;-3.60;99.90;;;;;;5051393;28;19950;-84
2022/12/18 05:53:30;;;;;;;;;;;-3.50;99.90;;;;;;5051737;28;19915;-83
2022/12/18 05:55:59;;;;;;;;;;;-3.60;99.90;;;;;;5052323;28;19916;-83
2022/12/18 05:58:24;;;;;;;;;;;-3.50;99.90;;;;;;5055711;28;19908;-83
2022/12/18 06:00:50;;;;;;;;;;;-3.50;99.90;;;;;;5053256;28;19967;-84
2022/12/18 06:03:15;;;;;;;;;;;-3.60;99.90;;;;;;5052055;28;20422;-85
2022/12/18 06:05:42;;;;;;;;;;;-3.50;99.90;;;;;;5051549;28;19931;-83
2022/12/18 06:08:08;;;;;;;;;;;-3.50;99.90;;;;;;5051775;28;19959;-83
2022/12/18 06:10:33;;;;;;;;;;;-3.60;99.90;;;;;;5054003;28;19908;-83
2022/12/18 06:12:59;;;;;;;;;;;-3.60;99.90;;;;;;5050993;28;19919;-83
2022/12/18 06:15:24;;;;;;;;;;;-3.60;99.90;;;;;;5031497;28;19913;-83
2022/12/18 06:17:50;;;;;;;;;;;-3.60;99.90;;;;;;5031585;28;19974;-83
2022/12/18 06:20:15;;;;;;;;;;;-3.60;99.90;;;;;;5031294;28;19916;-83
2022/12/18 06:22:41;;;;;;;;;;;-3.60;99.90;;;;;;5033194;28;19924;-83
2022/12/18 06:25:06;;;;;;;;;;;-3.60;99.90;;;;;;5034516;28;19910;-84
2022/12/18 06:27:33;;;;;;;;;;;-3.60;99.90;;;;;;5031939;28;19963;-85
2022/12/18 06:29:59;;;;;;;;;;;-3.60;99.90;;;;;;5031120;28;20398;-83
2022/12/18 06:32:24;;;;;;;;;;;-3.60;99.90;;;;;;5031858;28;19913;-85
2022/12/18 06:34:50;;;;;;;;;;;-3.60;99.90;;;;;;5035233;28;20401;-84
2022/12/18 06:37:15;;;;;;;;;;;-3.60;99.90;;;;;;5036180;28;19909;-83
2022/12/18 06:39:41;;;;;;;;;;;-3.60;99.90;;;;;;5035618;28;19909;-82
2022/12/18 06:42:06;;;;;;;;;;;-3.60;99.90;;;;;;5035654;28;19909;-83
2022/12/18 06:44:31;;;;;;;;;;;-3.60;99.90;;;;;;5035777;28;19958;-83
2022/12/18 06:46:57;;;;;;;;;;;-3.50;99.90;;;;;;5035956;28;19909;-83
2022/12/18 06:49:22;;;;;;;;;;;-3.60;99.90;;;;;;5037621;28;19909;-85
2022/12/18 06:51:48;;;;;;;;;;;-3.60;99.90;;;;;;5034176;28;20276;-84
2022/12/18 06:54:13;;;;;;;;;;;-3.60;99.90;;;;;;5034797;28;19913;-83
2022/12/18 06:56:39;;;;;;;;;;;-3.60;99.90;;;;;;5039225;28;19909;-83
2022/12/18 06:59:04;;;;;;;;;;;-3.60;99.90;;;;;;5037127;28;19909;-86
2022/12/18 07:01:30;;;;;;;;;;;-3.60;99.90;;;;;;5034021;28;19913;-84
2022/12/18 07:03:56;;;;;;;;;;;-3.50;99.90;;;;;;5034094;28;20433;-85
2022/12/18 07:06:22;;;;;;;;;;;-3.50;99.90;;;;;;5036243;28;19940;-84
2022/12/18 07:08:48;;;;;;;;;;;-3.50;99.90;;;;;;5036135;28;19948;-82
2022/12/18 07:11:13;;;;;;;;;;;-3.50;99.90;;;;;;5034095;28;19983;-83
2022/12/18 07:13:39;;;;;;;;;;;-3.50;99.90;;;;;;5035219;28;19909;-85
2022/12/18 07:16:05;;;;;;;;;;;-3.50;99.90;;;;;;5033964;28;19909;-84
2022/12/18 07:18:32;;;;;;;;;;;-3.50;99.90;;;;;;5035832;28;19911;-84
2022/12/18 07:21:02;;;;;;;;;;;-3.50;99.90;;;;;;5038876;28;19909;-83
2022/12/18 07:23:27;;;;;;;;;;;-3.50;99.90;;;;;;5033903;28;19917;-84
2022/12/18 07:25:53;;;;;;;;;;;-3.50;99.90;;;;;;5033847;28;19917;-83
2022/12/18 07:28:18;;;;;;;;;;;-3.50;99.90;;;;;;5033898;28;20004;-83
2022/12/18 07:30:44;;;;;;;;;;;-3.50;99.90;;;;;;5033783;28;20406;-85
2022/12/18 07:33:09;;;;;;;;;;;-3.50;99.90;;;;;;5034471;28;19916;-84
2022/12/18 07:35:35;;;;;;;;;;;-3.50;99.90;;;;;;5035490;28;19963;-84
2022/12/18 07:38:00;;;;;;;;;;;-3.50;99.90;;;;;;5033739;28;19917;-83
2022/12/18 07:40:26;;;;;;;;;;;-3.50;99.90;;;;;;5034210;28;19947;-86
2022/12/18 07:42:51;;;;;;;;;;;-3.40;99.90;;;;;;5033282;28;19959;-85
2022/12/18 07:45:17;;;;;;;;;;;-3.40;99.90;;;;;;5033204;28;20036;-84
2022/12/18 07:47:42;;;;;;;;;;;-3.30;99.90;;;;;;5034516;28;19916;-86
2022/12/18 07:50:08;;;;;;;;;;;-3.30;99.90;;;;;;5034640;28;19916;-83
2022/12/18 07:52:33;;;;;;;;;;;-3.20;99.90;;;;;;5036448;28;19920;-83
2022/12/18 07:54:59;;;;;;;;;;;-3.20;99.90;;;;;;5035189;28;19916;-83
2022/12/18 07:57:24;;;;;;;;;;;-3.20;99.90;;;;;;5033181;28;19952;-85
2022/12/18 07:59:49;;;;;;;;;;;-3.20;99.90;;;;;;5034264;28;19920;-84
2022/12/18 08:02:15;;;;;;;;;;;-3.20;99.90;;;;;;5034063;28;19940;-83
2022/12/18 08:04:40;;;;;;;;;;;-3.10;99.90;;;;;;5038398;28;20366;-85
2022/12/18 08:07:06;;;;;;;;;;;-3.10;99.90;;;;;;5033727;28;19909;-83
2022/12/18 08:09:31;;;;;;;;;;;-3.00;99.90;;;;;;5034874;28;19909;-84
2022/12/18 08:11:57;;;;;;;;;;;-3.00;99.90;;;;;;5032932;28;19917;-84
2022/12/18 08:14:22;;;;;;;;;;;-3.00;99.90;;;;;;5033052;28;19944;-83
2022/12/18 08:16:48;;;;;;;;;;;-2.90;99.90;;;;;;5035464;28;20370;-86
2022/12/18 08:19:13;;;;;;;;;;;-2.90;99.90;;;;;;5032481;28;19913;-86
2022/12/18 08:21:39;;;;;;;;;;;-2.80;99.90;;;;;;5032318;28;19952;-85
2022/12/18 08:24:04;;;;;;;;;;;-2.80;99.90;;;;;;5032355;28;19917;-84
2022/12/18 08:26:30;;;;;;;;;;;-2.70;99.90;;;;;;5038111;28;19963;-83
2022/12/18 08:28:56;;;;;;;;;;;-2.70;99.90;;;;;;5038998;28;19909;-84
2022/12/18 08:31:22;;;;;;;;;;;-2.60;99.90;;;;;;5034623;28;19964;-84
2022/12/18 08:33:49;;;;;;;;;;;-2.60;99.90;;;;;;5032377;28;19909;-84
2022/12/18 08:36:14;;;;;;;;;;;-2.60;99.90;;;;;;5033517;28;19909;-85
2022/12/18 08:38:40;;;;;;;;;;;-2.60;99.90;;;;;;5036108;28;20008;-83
2022/12/18 08:41:06;;;;;;;;;;;-2.50;99.90;;;;;;5032482;28;20576;-82
2022/12/18 08:46:17;;;;;;;;;;;-2.40;99.90;;;;;;5047481;28;19916;-83
2022/12/18 08:48:43;;;;;;;;;;;-2.40;99.90;;;;;;5054071;28;19917;-81
2022/12/18 08:51:09;;;;;;;;;;;-2.30;99.90;;;;;;5053657;28;19902;-83
2022/12/18 08:53:35;;;;;;;;;;;-2.20;99.90;;;;;;5054676;28;19897;-83
2022/12/18 08:56:00;;;;;;;;;;;-2.20;99.90;;;;;;5053122;28;19945;-83
2022/12/18 08:58:26;;;;;;;;;;;-2.10;99.90;;;;;;5053066;28;19941;-84
2022/12/18 09:00:51;;;;;;;;;;;-2.00;99.90;;;;;;5038547;28;19949;-84
2022/12/18 09:03:18;;;;;;;;;;;-1.90;99.90;;;;;;5038051;28;19909;-83
2022/12/18 09:05:45;;;;;;;;;;;-1.80;99.90;;;;;;5038307;28;19909;-85
2022/12/18 09:08:10;;;;;;;;;;;-1.70;99.90;;;;;;5038362;28;19966;-85
2022/12/18 09:10:41;;;;;;;;;;;-1.70;99.90;;;;;;5037210;28;20012;-85
2022/12/18 09:13:06;;;;;;;;;;;-1.70;99.90;;;;;;5042530;28;19920;-84
2022/12/18 09:15:32;;;;;;;;;;;-1.70;99.90;;;;;;5038948;28;19909;-84
2022/12/18 09:17:57;;;;;;;;;;;-1.70;99.90;;;;;;5036700;28;19963;-85
2022/12/18 09:20:23;;;;;;;;;;;-1.70;99.90;;;;;;5038131;28;19917;-87
2022/12/18 09:22:48;;;;;;;;;;;-1.60;99.90;;;;;;5042146;28;19917;-83
2022/12/18 09:25:14;;;;;;;;;;;-1.60;99.90;;;;;;5040673;28;19910;-84
2022/12/18 09:27:39;;;;;;;;;;;-1.60;99.90;;;;;;5045032;28;19931;-83
2022/12/18 09:30:05;;;;;;;;;;;-1.50;99.90;;;;;;5047217;28;20582;-84
2022/12/18 09:32:30;;;;;;;;;;;-1.30;99.90;;;;;;5045087;28;19940;-83
2022/12/18 09:34:56;;;;;;;;;;;-1.20;99.90;;;;;;5036983;28;19917;-84
2022/12/18 09:37:21;;;;;;;;;;;-1.10;99.90;;;;;;5036642;28;19971;-85
2022/12/18 09:39:47;;;;;;;;;;;-1.00;99.90;;;;;;5035920;28;20027;-85
2022/12/18 09:42:17;;;;;;;;;;;-1.00;99.90;;;;;;5035389;28;19995;-84
2022/12/18 09:44:46;;;;;;;;;;;-0.90;99.90;;;;;;5039253;28;19909;-84
2022/12/18 09:47:28;;;;;;;;;;;-0.90;99.90;;;;;;5039639;28;20370;-84
2022/12/18 09:49:59;;;;;;;;;;;-0.80;99.90;;;;;;5039336;28;19992;-84
2022/12/18 09:52:37;;;;;;;;;;;-0.70;99.90;;;;;;5035651;28;19921;-85
2022/12/18 09:55:11;;;;;;;;;;;-0.60;99.90;;;;;;5047643;28;19897;-83
2022/12/18 09:57:40;;;;;;;;;;;-0.50;99.90;;;;;;5045208;28;20322;-84
2022/12/18 10:00:16;;;;;;;;;;;-0.50;99.90;;;;;;5034878;28;19909;-82
2022/12/18 10:02:41;;;;;;;;;;;-0.50;99.90;;;;;;5035299;28;19910;-83
2022/12/18 10:05:12;;;;;;;;;;;-0.40;99.90;;;;;;5039997;28;20003;-83
2022/12/18 10:07:40;;;;;;;;;;;-0.30;99.90;;;;;;5036235;28;19917;-83
2022/12/18 10:10:08;;;;;;;;;;;-0.30;99.90;;;;;;5051848;28;19913;-84
2022/12/18 10:12:45;;;;;;;;;;;-0.20;99.90;;;;;;5054135;28;20011;-83
2022/12/18 10:15:19;;;;;;;;;;;0.00;99.90;;;;;;5057273;28;19966;-82
2022/12/18 10:18:03;;;;;;;;;;;0.20;99.90;;;;;;5055651;28;19909;-85
2022/12/18 10:20:35;;;;;;;;;;;0.20;99.90;;;;;;5054296;28;19909;-82
2022/12/18 10:23:09;;;;;;;;;;;0.20;99.90;;;;;;5054213;28;20266;-85
2022/12/18 10:25:54;;;;;;;;;;;0.10;99.90;;;;;;5054305;28;19960;-82
2022/12/18 10:28:20;;;;;;;;;;;0.20;99.90;;;;;;5054368;28;19920;-84
2022/12/18 10:30:46;;;;;;;;;;;0.20;99.90;;;;;;5054050;28;19909;-84
2022/12/18 10:33:14;;;;;;;;;;;0.30;99.90;;;;;;5053807;28;19963;-84
2022/12/18 10:35:40;;;;;;;;;;;0.40;99.90;;;;;;5056929;28;19913;-82
2022/12/18 10:38:20;;;;;;;;;;;0.40;99.90;;;;;;5074756;28;19916;-84
2022/12/18 10:40:56;;;;;;;;;;;0.50;99.90;;;;;;5074517;28;19909;-83
2022/12/18 10:43:21;;;;;;;;;;;0.70;99.90;;;;;;5074010;28;19909;-82
2022/12/18 10:46:01;;;;;;;;;;;0.70;99.90;;;;;;5074844;28;20454;-85
2022/12/18 10:48:26;;;;;;;;;;;0.60;99.90;;;;;;5078485;28;20354;-84
2022/12/18 10:50:52;;;;;;;;;;;0.60;99.90;;;;;;5073299;28;19915;-82
2022/12/18 10:53:23;;;;;;;;;;;0.70;99.90;;;;;;5058418;28;19909;-85
2022/12/18 10:55:49;;;;;;;;;;;0.70;99.90;;;;;;5058146;28;19931;-84
2022/12/18 10:58:25;;;;;;;;;;;0.80;99.90;;;;;;5058313;28;19909;-85
2022/12/18 11:01:03;;;;;;;;;;;0.80;99.90;;;;;;5057594;28;19913;-83
2022/12/18 11:03:35;;;;;;;;;;;0.90;99.90;;;;;;5057747;28;19915;-85
2022/12/18 11:06:02;;;;;;;;;;;1.00;99.90;;;;;;5057597;28;19919;-86
2022/12/18 11:08:27;;;;;;;;;;;1.00;99.90;;;;;;5059515;28;19913;-84
2022/12/18 11:10:53;;;;;;;;;;;1.20;99.90;;;;;;5057628;28;19909;-82
2022/12/18 11:13:20;;;;;;;;;;;1.30;99.90;;;;;;5057154;28;19909;-83
2022/12/18 11:15:45;;;;;;;;;;;1.40;99.90;;;;;;5056863;28;19954;-86
2022/12/18 11:18:30;;;;;;;;;;;1.30;99.90;;;;;;5057084;28;19988;-85
2022/12/18 11:21:00;;;;;;;;;;;1.20;99.90;;;;;;5055790;28;19916;-85
2022/12/18 11:23:26;;;;;;;;;;;1.30;99.90;;;;;;5058588;28;20290;-86
2022/12/18 11:25:59;;;;;;;;;;;1.30;99.90;;;;;;5056965;28;19909;-86
2022/12/18 11:28:25;;;;;;;;;;;1.30;99.90;;;;;;5056850;28;20309;-83
2022/12/18 11:31:07;;;;;;;;;;;1.40;99.90;;;;;;5056495;28;19909;-85
2022/12/18 11:33:33;;;;;;;;;;;1.40;99.90;;;;;;5056103;28;19909;-83
2022/12/18 11:36:03;;;;;;;;;;;1.40;99.90;;;;;;5056402;28;19942;-84
2022/12/18 11:38:32;;;;;;;;;;;1.50;99.90;;;;;;5056393;28;19916;-84
2022/12/18 11:41:03;;;;;;;;;;;1.40;99.90;;;;;;5055992;28;20035;-81
2022/12/18 11:43:49;;;;;;;;;;;1.60;99.90;;;;;;5056717;28;19936;-85
2022/12/18 11:46:17;;;;;;;;;;;1.50;99.90;;;;;;5058067;28;19909;-85
2022/12/18 11:48:49;;;;;;;;;;;1.40;99.90;;;;;;5056753;28;20355;-82
2022/12/18 11:51:19;;;;;;;;;;;1.40;99.90;;;;;;5056214;28;19913;-85
2022/12/18 11:53:44;;;;;;;;;;;1.20;99.90;;;;;;5055954;28;19915;-86
2022/12/18 11:56:25;;;;;;;;;;;1.00;99.90;;;;;;5055235;28;19952;-84
2022/12/18 11:58:54;;;;;;;;;;;1.00;99.90;;;;;;5055429;28;20003;-86
2022/12/18 12:01:35;;;;;;;;;;;1.00;99.90;;;;;;5056916;28;19960;-83
2022/12/18 12:04:23;;;;;;;;;;;0.90;99.90;;;;;;5055038;28;19913;-84
2022/12/18 12:06:55;;;;;;;;;;;0.90;99.90;;;;;;5055427;28;20255;-84
2022/12/18 12:09:21;;;;;;;;;;;0.90;99.90;;;;;;5055084;28;19909;-85
2022/12/18 12:12:05;;;;;;;;;;;0.80;99.90;;;;;;5056849;28;20352;-84
2022/12/18 12:14:39;;;;;;;;;;;0.80;99.90;;;;;;5055556;28;19909;-83
2022/12/18 12:17:23;;;;;;;;;;;0.80;99.90;;;;;;5054660;28;20449;-83
2022/12/18 12:20:08;;;;;;;;;;;0.80;99.90;;;;;;5055847;28;19968;-85
2022/12/18 12:22:43;;;;;;;;;;;0.90;99.90;;;;;;5049468;28;20044;-83
2022/12/18 12:25:08;;;;;;;;;;;0.90;99.90;;;;;;5046606;28;19913;-81
2022/12/18 12:27:37;;;;;;;;;;;1.00;99.90;;;;;;5054916;28;20388;-82
2022/12/18 12:30:05;;;;;;;;;;;1.00;99.90;;;;;;5055232;28;19955;-81
2022/12/18 12:32:50;;;;;;;;;;;1.00;99.90;;;;;;5057837;28;20328;-82
2022/12/18 12:35:24;;;;;;;;;;;1.00;99.90;;;;;;5055888;28;20259;-82
2022/12/18 12:37:49;;;;;;;;;;;1.10;99.90;;;;;;5059268;28;20114;-83
2022/12/18 12:40:18;;;;;;;;;;;0.90;99.90;;;;;;5057883;28;20380;-83
2022/12/18 12:45:36;;;;;;;;;;;0.90;99.90;;;;;;5058970;28;19974;-83
2022/12/18 12:48:03;;;;;;;;;;;0.80;99.90;;;;;;5061075;28;19963;-83
2022/12/18 12:50:33;;;;;;;;;;;0.90;99.90;;;;;;5055975;28;20290;-83
2022/12/18 12:53:01;;;;;;;;;;;0.90;99.90;;;;;;5057309;28;19912;-83
2022/12/18 12:55:27;;;;;;;;;;;0.90;99.90;;;;;;5056205;28;20313;-83
2022/12/18 12:58:19;;;;;;;;;;;0.80;99.90;;;;;;5056313;28;19913;-84
2022/12/18 13:00:53;;;;;;;;;;;0.90;99.90;;;;;;5052978;28;19983;-83
2022/12/18 13:03:38;;;;;;;;;;;0.80;99.90;;;;;;5055816;28;19915;-83
2022/12/18 13:06:19;;;;;;;;;;;0.80;99.90;;;;;;5051738;28;20323;-83
2022/12/18 13:08:53;;;;;;;;;;;0.90;99.90;;;;;;5054214;28;19913;-85
2022/12/18 13:14:36;;;;;;;;;;;1.00;99.90;;;;;;5053536;28;19966;-84
2022/12/18 13:17:20;;;;;;;;;;;1.10;99.90;;;;;;5056145;28;19917;-84
2022/12/18 13:20:03;;;;;;;;;;;1.00;99.90;;;;;;5054546;28;19909;-83
2022/12/18 13:22:31;;;;;;;;;;;0.90;99.90;;;;;;5054589;28;19916;-84
2022/12/18 13:24:56;;;;;;;;;;;0.90;99.90;;;;;;5055707;28;20012;-84
2022/12/18 13:27:51;;;;;;;;;;;1.00;99.90;;;;;;5124432;22;20703;-83
2022/12/18 13:30:32;;;;;;;;;;;1.00;99.90;;;;;;5049563;28;19960;-83
2022/12/18 13:33:13;;;;;;;;;;;1.00;99.90;;;;;;5084045;28;19951;-84
2022/12/18 13:35:39;;;;;;;;;;;1.00;99.90;;;;;;5074591;28;19915;-84
2022/12/18 13:38:24;;;;;;;;;;;0.90;99.90;;;;;;5055138;28;20362;-83
2022/12/18 13:40:49;;;;;;;;;;;0.80;99.90;;;;;;5052033;28;19908;-84
2022/12/18 13:43:21;;;;;;;;;;;0.60;99.90;;;;;;5053913;28;19913;-83
2022/12/18 13:46:01;;;;;;;;;;;0.60;99.90;;;;;;5056298;28;19909;-84
2022/12/18 13:48:29;;;;;;;;;;;0.60;99.90;;;;;;5056386;28;19915;-85
2022/12/18 13:50:58;;;;;;;;;;;0.70;99.90;;;;;;5056719;28;19912;-83
2022/12/18 13:53:26;;;;;;;;;;;0.60;99.90;;;;;;5056753;28;20286;-84
2022/12/18 13:55:51;;;;;;;;;;;0.70;99.90;;;;;;5055837;28;19909;-85
2022/12/18 13:58:17;;;;;;;;;;;0.70;99.90;;;;;;5055837;28;19909;-84
2022/12/18 14:00:43;;;;;;;;;;;0.70;99.90;;;;;;5056927;28;20629;-85
2022/12/18 14:03:27;;;;;;;;;;;0.70;99.90;;;;;;5056242;28;19917;-85
2022/12/18 14:05:54;;;;;;;;;;;0.70;99.90;;;;;;5052109;28;19913;-85
2022/12/18 14:08:20;;;;;;;;;;;0.60;99.90;;;;;;5060025;28;20363;-82
2022/12/18 14:10:47;;;;;;;;;;;0.50;99.90;;;;;;5059958;28;19920;-82
2022/12/18 14:13:17;;;;;;;;;;;0.50;99.90;;;;;;5059973;28;20293;-83
2022/12/18 14:15:43;;;;;;;;;;;0.50;99.90;;;;;;5060375;28;19909;-82
2022/12/18 14:18:27;;;;;;;;;;;0.50;99.90;;;;;;5058223;28;19916;-83
2022/12/18 14:20:55;;;;;;;;;;;0.50;99.90;;;;;;5059555;28;19908;-83
2022/12/18 14:23:30;;;;;;;;;;;0.60;99.90;;;;;;5063382;28;19947;-82
2022/12/18 14:25:55;;;;;;;;;;;0.50;99.90;;;;;;5073194;28;19924;-83
2022/12/18 14:28:25;;;;;;;;;;;0.50;99.90;;;;;;5074880;28;19976;-83
2022/12/18 14:30:51;;;;;;;;;;;0.40;99.90;;;;;;5074975;28;19936;-82
2022/12/18 14:33:21;;;;;;;;;;;0.40;99.90;;;;;;5074216;28;20288;-82
2022/12/18 14:36:00;;;;;;;;;;;0.40;99.90;;;;;;5074610;28;19920;-83
2022/12/18 14:38:27;;;;;;;;;;;0.40;99.90;;;;;;5071903;28;19913;-85